Cdry Blue — ICOB — position and weather

sailwx.info

Track history (hours):
 
Tides and Currents Weather Stations Pressure Air Temp Water Temp Dewpoint Dewpoint Depression Visibility Wind Speed Wind Dir Waves Ship Positions

Cdry Blue

Last reported at 2014-Nov-01 05:31 UTC. Time now 2014-Nov-01 06:57 UTC.
Position N 39°13' E 009°04'.

Length 108 m; draft 6.8 m.

Type: Cargo ship. MMSI: 247289300.

Date/timePositionNaut miles runAvg speedWind from/ knotsBaromVisibWave heightAir tempDewpointWater temp
2014-Nov-01 05:31N 39°13' E 009°04'0 0.0
2014-Nov-01 04:31N 39°13' E 009°04'0 0.0
2014-Nov-01 03:31N 39°13' E 009°04'0 0.0
2014-Nov-01 02:31N 39°13' E 009°04'0 0.0
2014-Nov-01 01:31N 39°13' E 009°04'0 0.0
2014-Nov-01 00:31N 39°13' E 009°04'0 0.0
2014-Oct-31 23:31N 39°13' E 009°04'0 0.0
2014-Oct-31 22:31N 39°13' E 009°04'0 0.0
2014-Oct-31 21:31N 39°13' E 009°04'0 0.0
2014-Oct-31 20:31N 39°13' E 009°04'2 2.3
2014-Oct-31 19:33N 39°11' E 009°06'10 9.9
2014-Oct-31 18:33N 39°02' E 009°07'1212.3
2014-Oct-31 17:33N 38°52' E 008°57'1110.8
2014-Oct-31 16:32N 38°49' E 008°43'3511.1
2014-Oct-31 13:20N 39°03' E 008°01'1011.2
2014-Oct-31 12:27N 39°09' E 007°51'20412.0
2014-Oct-30 19:30N 41°11' E 004°17'1311.3
2014-Oct-30 18:20N 41°19' E 004°03'1012.1
2014-Oct-30 17:31N 41°24' E 003°52'1414.2
2014-Oct-30 16:33N 41°32' E 003°37'1010.0
2014-Oct-30 15:32N 41°38' E 003°26'1212.0
2014-Oct-30 14:30N 41°46' E 003°14'6 0.2
2014-Oct-28 21:32N 41°51' E 003°07'0 0.0
2014-Oct-28 20:07N 41°51' E 003°07'10 5.3
2014-Oct-28 18:13N 41°40' E 003°07'1212.7
2014-Oct-28 17:17N 41°32' E 002°56'1311.7
2014-Oct-28 16:08N 41°26' E 002°40'812.2
2014-Oct-28 15:28N 41°21' E 002°32'1211.2
2014-Oct-28 14:23N 41°14' E 002°18'1312.4
2014-Oct-28 13:20N 41°11' E 002°01'2612.5
2014-Oct-28 11:16N 41°04' E 001°28'1012.8
2014-Oct-28 10:28N 41°04' E 001°14'3 0.1
2014-Oct-26 16:15N 41°06' E 001°17'0 0.0
2014-Oct-26 14:27N 41°06' E 001°17'0 0.0
2014-Oct-25 22:33N 41°06' E 001°17'0 0.0
2014-Oct-25 21:09N 41°06' E 001°17'19 1.5
2014-Oct-25 09:06N 41°06' E 001°42'2411.9
2014-Oct-25 07:05N 41°11' E 002°13'1112.1
2014-Oct-25 06:09N 41°14' E 002°27'2212.3
2014-Oct-25 04:22N 41°28' E 002°50'7811.4
2014-Oct-24 21:33N 42°39' E 003°33'1613.3
2014-Oct-24 20:23N 42°54' E 003°40'1110.9
2014-Oct-24 19:22N 43°04' E 003°44'1011.9
2014-Oct-24 18:30N 43°14' E 003°49'11 9.5
2014-Oct-24 17:21N 43°24' E 003°44'0 0.2
2014-Oct-24 15:23N 43°24' E 003°43'0 0.0
2014-Oct-23 20:15N 43°24' E 003°43'0 0.0
2014-Oct-23 18:23N 43°24' E 003°43'0 0.0
2014-Oct-22 18:26N 43°24' E 003°43'0 0.0
2014-Oct-22 16:26N 43°24' E 003°43'0 0.0
2014-Oct-22 15:26N 43°24' E 003°43'0 0.0
2014-Oct-22 13:23N 43°24' E 003°43'0 0.0
2014-Oct-22 11:05N 43°24' E 003°43'0 0.0
2014-Oct-22 09:26N 43°24' E 003°43'0 0.0
2014-Oct-22 08:21N 43°24' E 003°43'0 0.0
2014-Oct-22 07:32N 43°24' E 003°43'  
Track history (hours):
 
Tides and Currents Weather Stations Pressure Air Temp Water Temp Dewpoint Dewpoint Depression Visibility Wind Speed Wind Dir Waves Ship Positions

Cdry Blue

Last reported at 2014-Nov-01 05:31 UTC. Time now 2014-Nov-01 06:57 UTC.
Position N 39°13' E 009°04'.

Length 108 m; draft 6.8 m.

Type: Cargo ship. MMSI: 247289300.

Date/timePositionNaut miles runAvg speedWind from/ knotsBaromVisibWave heightAir tempDewpointWater temp
2014-Nov-01 05:31N 39°13' E 009°04'0 0.0
2014-Nov-01 04:31N 39°13' E 009°04'0 0.0
2014-Nov-01 03:31N 39°13' E 009°04'0 0.0
2014-Nov-01 02:31N 39°13' E 009°04'0 0.0
2014-Nov-01 01:31N 39°13' E 009°04'0 0.0
2014-Nov-01 00:31N 39°13' E 009°04'0 0.0
2014-Oct-31 23:31N 39°13' E 009°04'0 0.0
2014-Oct-31 22:31N 39°13' E 009°04'0 0.0
2014-Oct-31 21:31N 39°13' E 009°04'0 0.0
2014-Oct-31 20:31N 39°13' E 009°04'2 2.3
2014-Oct-31 19:33N 39°11' E 009°06'10 9.9
2014-Oct-31 18:33N 39°02' E 009°07'1212.3
2014-Oct-31 17:33N 38°52' E 008°57'1110.8
2014-Oct-31 16:32N 38°49' E 008°43'3511.1
2014-Oct-31 13:20N 39°03' E 008°01'1011.2
2014-Oct-31 12:27N 39°09' E 007°51'20412.0
2014-Oct-30 19:30N 41°11' E 004°17'1311.3
2014-Oct-30 18:20N 41°19' E 004°03'1012.1
2014-Oct-30 17:31N 41°24' E 003°52'1414.2
2014-Oct-30 16:33N 41°32' E 003°37'1010.0
2014-Oct-30 15:32N 41°38' E 003°26'1212.0
2014-Oct-30 14:30N 41°46' E 003°14'6 0.2
2014-Oct-28 21:32N 41°51' E 003°07'0 0.0
2014-Oct-28 20:07N 41°51' E 003°07'10 5.3
2014-Oct-28 18:13N 41°40' E 003°07'1212.7
2014-Oct-28 17:17N 41°32' E 002°56'1311.7
2014-Oct-28 16:08N 41°26' E 002°40'812.2
2014-Oct-28 15:28N 41°21' E 002°32'1211.2
2014-Oct-28 14:23N 41°14' E 002°18'1312.4
2014-Oct-28 13:20N 41°11' E 002°01'2612.5
2014-Oct-28 11:16N 41°04' E 001°28'1012.8
2014-Oct-28 10:28N 41°04' E 001°14'3 0.1
2014-Oct-26 16:15N 41°06' E 001°17'0 0.0
2014-Oct-26 14:27N 41°06' E 001°17'0 0.0
2014-Oct-25 22:33N 41°06' E 001°17'0 0.0
2014-Oct-25 21:09N 41°06' E 001°17'19 1.5
2014-Oct-25 09:06N 41°06' E 001°42'2411.9
2014-Oct-25 07:05N 41°11' E 002°13'1112.1
2014-Oct-25 06:09N 41°14' E 002°27'2212.3
2014-Oct-25 04:22N 41°28' E 002°50'7811.4
2014-Oct-24 21:33N 42°39' E 003°33'1613.3
2014-Oct-24 20:23N 42°54' E 003°40'1110.9
2014-Oct-24 19:22N 43°04' E 003°44'1011.9
2014-Oct-24 18:30N 43°14' E 003°49'11 9.5
2014-Oct-24 17:21N 43°24' E 003°44'0 0.2
2014-Oct-24 15:23N 43°24' E 003°43'0 0.0
2014-Oct-23 20:15N 43°24' E 003°43'0 0.0
2014-Oct-23 18:23N 43°24' E 003°43'0 0.0
2014-Oct-22 18:26N 43°24' E 003°43'0 0.0
2014-Oct-22 16:26N 43°24' E 003°43'0 0.0
2014-Oct-22 15:26N 43°24' E 003°43'0 0.0
2014-Oct-22 13:23N 43°24' E 003°43'0 0.0
2014-Oct-22 11:05N 43°24' E 003°43'0 0.0
2014-Oct-22 09:26N 43°24' E 003°43'0 0.0
2014-Oct-22 08:21N 43°24' E 003°43'0 0.0
2014-Oct-22 07:32N 43°24' E 003°43'  

Dump ship's entire track history